sensor_id;sensor_type;location;lat;lon;timestamp;temperature;humidity
3504;DHT22;1766;53.490;10.174;2023-09-19T00:00:17;22.90;62.00
3504;DHT22;1766;53.490;10.174;2023-09-19T00:02:23;22.80;62.00
3504;DHT22;1766;53.490;10.174;2023-09-19T00:04:26;22.80;62.10
3504;DHT22;1766;53.490;10.174;2023-09-19T00:06:31;22.90;62.90
3504;DHT22;1766;53.490;10.174;2023-09-19T00:08:36;22.80;62.20
3504;DHT22;1766;53.490;10.174;2023-09-19T00:10:39;22.80;62.20
3504;DHT22;1766;53.490;10.174;2023-09-19T00:12:43;22.80;62.30
3504;DHT22;1766;53.490;10.174;2023-09-19T00:14:45;22.80;62.40
3504;DHT22;1766;53.490;10.174;2023-09-19T00:16:48;22.80;62.60
3504;DHT22;1766;53.490;10.174;2023-09-19T00:18:51;22.80;62.70
3504;DHT22;1766;53.490;10.174;2023-09-19T00:20:57;22.80;62.90
3504;DHT22;1766;53.490;10.174;2023-09-19T00:22:58;22.80;63.70
3504;DHT22;1766;53.490;10.174;2023-09-19T00:25:06;22.80;63.10
3504;DHT22;1766;53.490;10.174;2023-09-19T00:27:08;22.70;63.30
3504;DHT22;1766;53.490;10.174;2023-09-19T00:29:10;22.80;63.30
3504;DHT22;1766;53.490;10.174;2023-09-19T00:31:16;22.80;63.40
3504;DHT22;1766;53.490;10.174;2023-09-19T00:33:19;22.80;63.50
3504;DHT22;1766;53.490;10.174;2023-09-19T00:35:23;22.80;63.50
3504;DHT22;1766;53.490;10.174;2023-09-19T00:37:25;22.80;63.60
3504;DHT22;1766;53.490;10.174;2023-09-19T00:39:28;22.80;63.60
3504;DHT22;1766;53.490;10.174;2023-09-19T00:41:32;22.80;63.70
3504;DHT22;1766;53.490;10.174;2023-09-19T00:43:36;22.80;63.70
3504;DHT22;1766;53.490;10.174;2023-09-19T00:45:44;22.80;63.80
3504;DHT22;1766;53.490;10.174;2023-09-19T00:47:49;22.80;63.80
3504;DHT22;1766;53.490;10.174;2023-09-19T00:49:52;22.80;64.00
3504;DHT22;1766;53.490;10.174;2023-09-19T00:51:59;22.80;64.00
3504;DHT22;1766;53.490;10.174;2023-09-19T00:54:05;22.80;64.00
3504;DHT22;1766;53.490;10.174;2023-09-19T00:56:09;22.70;64.00
3504;DHT22;1766;53.490;10.174;2023-09-19T00:58:11;22.70;64.20
3504;DHT22;1766;53.490;10.174;2023-09-19T01:00:13;22.80;64.20
3504;DHT22;1766;53.490;10.174;2023-09-19T01:02:17;22.70;64.20
3504;DHT22;1766;53.490;10.174;2023-09-19T01:04:19;22.80;64.40
3504;DHT22;1766;53.490;10.174;2023-09-19T01:06:22;22.80;64.40
3504;DHT22;1766;53.490;10.174;2023-09-19T01:08:25;22.70;64.40
3504;DHT22;1766;53.490;10.174;2023-09-19T01:10:30;22.70;64.40
3504;DHT22;1766;53.490;10.174;2023-09-19T01:12:44;22.70;64.60
3504;DHT22;1766;53.490;10.174;2023-09-19T01:14:55;22.70;64.90
3504;DHT22;1766;53.490;10.174;2023-09-19T01:17:09;22.70;65.10
3504;DHT22;1766;53.490;10.174;2023-09-19T01:19:38;22.60;65.10
3504;DHT22;1766;53.490;10.174;2023-09-19T01:22:00;22.60;65.20
3504;DHT22;1766;53.490;10.174;2023-09-19T01:27:02;22.60;65.40
3504;DHT22;1766;53.490;10.174;2023-09-19T01:29:23;22.60;65.50
3504;DHT22;1766;53.490;10.174;2023-09-19T01:31:37;22.60;66.30
3504;DHT22;1766;53.490;10.174;2023-09-19T01:33:57;22.70;65.80
3504;DHT22;1766;53.490;10.174;2023-09-19T01:36:01;22.60;65.80
3504;DHT22;1766;53.490;10.174;2023-09-19T01:38:03;22.60;65.90
3504;DHT22;1766;53.490;10.174;2023-09-19T01:40:08;22.60;65.90
3504;DHT22;1766;53.490;10.174;2023-09-19T01:42:24;22.60;66.00
3504;DHT22;1766;53.490;10.174;2023-09-19T01:44:40;22.60;66.20
3504;DHT22;1766;53.490;10.174;2023-09-19T01:46:48;22.60;66.20
3504;DHT22;1766;53.490;10.174;2023-09-19T01:48:57;22.60;66.30
3504;DHT22;1766;53.490;10.174;2023-09-19T01:51:06;22.70;66.40
3504;DHT22;1766;53.490;10.174;2023-09-19T01:53:15;22.70;66.40
3504;DHT22;1766;53.490;10.174;2023-09-19T01:55:26;22.70;66.40
3504;DHT22;1766;53.490;10.174;2023-09-19T01:57:34;22.60;66.40
3504;DHT22;1766;53.490;10.174;2023-09-19T01:59:43;22.70;66.60
3504;DHT22;1766;53.490;10.174;2023-09-19T02:01:52;22.70;66.60
3504;DHT22;1766;53.490;10.174;2023-09-19T02:03:56;22.70;66.40
3504;DHT22;1766;53.490;10.174;2023-09-19T02:05:58;22.70;66.50
3504;DHT22;1766;53.490;10.174;2023-09-19T02:07:59;22.70;66.40
3504;DHT22;1766;53.490;10.174;2023-09-19T02:10:01;22.70;66.30
3504;DHT22;1766;53.490;10.174;2023-09-19T02:12:05;22.80;66.40
3504;DHT22;1766;53.490;10.174;2023-09-19T02:14:07;22.70;66.40
3504;DHT22;1766;53.490;10.174;2023-09-19T02:18:28;22.70;66.20
3504;DHT22;1766;53.490;10.174;2023-09-19T02:20:31;22.70;66.20
3504;DHT22;1766;53.490;10.174;2023-09-19T02:22:33;22.70;66.20
3504;DHT22;1766;53.490;10.174;2023-09-19T02:24:35;22.70;66.10
3504;DHT22;1766;53.490;10.174;2023-09-19T02:26:38;22.80;66.20
3504;DHT22;1766;53.490;10.174;2023-09-19T02:28:40;22.80;66.00
3504;DHT22;1766;53.490;10.174;2023-09-19T02:30:42;22.80;65.90
3504;DHT22;1766;53.490;10.174;2023-09-19T02:32:44;22.80;65.70
3504;DHT22;1766;53.490;10.174;2023-09-19T02:34:48;22.80;65.70
3504;DHT22;1766;53.490;10.174;2023-09-19T02:36:49;22.80;65.60
3504;DHT22;1766;53.490;10.174;2023-09-19T02:38:51;22.80;65.40
3504;DHT22;1766;53.490;10.174;2023-09-19T02:40:53;22.80;65.40
3504;DHT22;1766;53.490;10.174;2023-09-19T02:42:57;22.80;65.20
3504;DHT22;1766;53.490;10.174;2023-09-19T02:44:59;22.80;65.30
3504;DHT22;1766;53.490;10.174;2023-09-19T02:47:01;22.70;65.10
3504;DHT22;1766;53.490;10.174;2023-09-19T02:49:04;22.80;65.20
3504;DHT22;1766;53.490;10.174;2023-09-19T02:51:08;22.80;65.00
3504;DHT22;1766;53.490;10.174;2023-09-19T02:53:11;22.70;64.90
3504;DHT22;1766;53.490;10.174;2023-09-19T02:55:15;22.70;64.80
3504;DHT22;1766;53.490;10.174;2023-09-19T02:57:20;22.70;64.80
3504;DHT22;1766;53.490;10.174;2023-09-19T02:59:25;22.70;64.90
3504;DHT22;1766;53.490;10.174;2023-09-19T03:01:29;22.70;64.60
3504;DHT22;1766;53.490;10.174;2023-09-19T03:03:34;22.70;64.50
3504;DHT22;1766;53.490;10.174;2023-09-19T03:05:40;22.70;64.50
3504;DHT22;1766;53.490;10.174;2023-09-19T03:07:49;22.60;64.30
3504;DHT22;1766;53.490;10.174;2023-09-19T03:09:52;22.70;64.30
3504;DHT22;1766;53.490;10.174;2023-09-19T03:11:55;22.60;64.30
3504;DHT22;1766;53.490;10.174;2023-09-19T03:13:58;22.60;64.30
3504;DHT22;1766;53.490;10.174;2023-09-19T03:16:03;22.60;64.20
3504;DHT22;1766;53.490;10.174;2023-09-19T03:18:06;22.60;64.30
3504;DHT22;1766;53.490;10.174;2023-09-19T03:20:09;22.50;63.90
3504;DHT22;1766;53.490;10.174;2023-09-19T03:22:14;22.50;64.10
3504;DHT22;1766;53.490;10.174;2023-09-19T03:24:18;22.50;64.20
3504;DHT22;1766;53.490;10.174;2023-09-19T03:26:21;22.50;64.20
3504;DHT22;1766;53.490;10.174;2023-09-19T03:28:23;22.40;64.20
3504;DHT22;1766;53.490;10.174;2023-09-19T03:30:25;22.40;64.20
3504;DHT22;1766;53.490;10.174;2023-09-19T03:32:27;22.40;64.30
3504;DHT22;1766;53.490;10.174;2023-09-19T03:34:30;22.30;64.20
3504;DHT22;1766;53.490;10.174;2023-09-19T03:36:33;22.30;64.50
3504;DHT22;1766;53.490;10.174;2023-09-19T03:38:36;22.30;64.60
3504;DHT22;1766;53.490;10.174;2023-09-19T03:40:39;22.30;64.60
3504;DHT22;1766;53.490;10.174;2023-09-19T03:42:42;22.20;64.40
3504;DHT22;1766;53.490;10.174;2023-09-19T03:44:44;22.30;64.50
3504;DHT22;1766;53.490;10.174;2023-09-19T03:46:48;22.20;64.60
3504;DHT22;1766;53.490;10.174;2023-09-19T03:48:50;22.20;64.60
3504;DHT22;1766;53.490;10.174;2023-09-19T03:50:53;22.20;64.40
3504;DHT22;1766;53.490;10.174;2023-09-19T03:52:57;22.20;64.40
3504;DHT22;1766;53.490;10.174;2023-09-19T03:54:59;22.20;64.30
3504;DHT22;1766;53.490;10.174;2023-09-19T03:57:05;22.20;64.20
3504;DHT22;1766;53.490;10.174;2023-09-19T03:59:07;22.10;64.00
3504;DHT22;1766;53.490;10.174;2023-09-19T04:01:11;22.10;63.70
3504;DHT22;1766;53.490;10.174;2023-09-19T04:03:14;22.10;63.70
3504;DHT22;1766;53.490;10.174;2023-09-19T04:05:21;22.10;63.50
3504;DHT22;1766;53.490;10.174;2023-09-19T04:07:24;22.10;63.20
3504;DHT22;1766;53.490;10.174;2023-09-19T04:09:30;22.00;62.90
3504;DHT22;1766;53.490;10.174;2023-09-19T04:11:34;22.00;62.50
3504;DHT22;1766;53.490;10.174;2023-09-19T04:13:39;22.00;62.50
3504;DHT22;1766;53.490;10.174;2023-09-19T04:15:44;22.00;62.00
3504;DHT22;1766;53.490;10.174;2023-09-19T04:17:48;21.90;61.60
3504;DHT22;1766;53.490;10.174;2023-09-19T04:19:49;21.90;61.10
3504;DHT22;1766;53.490;10.174;2023-09-19T04:21:52;21.90;60.60
3504;DHT22;1766;53.490;10.174;2023-09-19T04:23:54;21.90;60.40
3504;DHT22;1766;53.490;10.174;2023-09-19T04:25:56;21.80;59.60
3504;DHT22;1766;53.490;10.174;2023-09-19T04:27:58;21.80;59.30
3504;DHT22;1766;53.490;10.174;2023-09-19T04:30:01;21.80;59.00
3504;DHT22;1766;53.490;10.174;2023-09-19T04:32:10;21.70;58.50
3504;DHT22;1766;53.490;10.174;2023-09-19T04:34:14;21.70;58.10
3504;DHT22;1766;53.490;10.174;2023-09-19T04:36:17;21.70;57.90
3504;DHT22;1766;53.490;10.174;2023-09-19T04:38:19;21.70;57.60
3504;DHT22;1766;53.490;10.174;2023-09-19T04:40:21;21.70;57.10
3504;DHT22;1766;53.490;10.174;2023-09-19T04:42:25;21.60;56.90
3504;DHT22;1766;53.490;10.174;2023-09-19T04:44:28;21.60;56.80
3504;DHT22;1766;53.490;10.174;2023-09-19T04:46:34;21.60;56.50
3504;DHT22;1766;53.490;10.174;2023-09-19T04:48:36;21.50;56.30
3504;DHT22;1766;53.490;10.174;2023-09-19T04:50:38;21.50;56.10
3504;DHT22;1766;53.490;10.174;2023-09-19T04:52:41;21.50;55.90
3504;DHT22;1766;53.490;10.174;2023-09-19T04:54:44;21.50;55.90
3504;DHT22;1766;53.490;10.174;2023-09-19T04:56:48;21.40;55.60
3504;DHT22;1766;53.490;10.174;2023-09-19T04:58:50;21.40;55.60
3504;DHT22;1766;53.490;10.174;2023-09-19T05:00:52;21.40;55.50
3504;DHT22;1766;53.490;10.174;2023-09-19T05:02:57;21.40;55.30
3504;DHT22;1766;53.490;10.174;2023-09-19T05:04:59;21.40;55.30
3504;DHT22;1766;53.490;10.174;2023-09-19T05:07:01;21.30;55.20
3504;DHT22;1766;53.490;10.174;2023-09-19T05:09:04;21.30;55.10
3504;DHT22;1766;53.490;10.174;2023-09-19T05:11:06;21.30;55.10
3504;DHT22;1766;53.490;10.174;2023-09-19T05:13:07;21.20;55.00
3504;DHT22;1766;53.490;10.174;2023-09-19T05:15:09;21.20;54.80
3504;DHT22;1766;53.490;10.174;2023-09-19T05:17:13;21.20;54.90
3504;DHT22;1766;53.490;10.174;2023-09-19T05:19:19;21.10;54.70
3504;DHT22;1766;53.490;10.174;2023-09-19T05:21:21;21.10;54.80
3504;DHT22;1766;53.490;10.174;2023-09-19T05:23:24;21.10;54.70
3504;DHT22;1766;53.490;10.174;2023-09-19T05:25:28;21.10;54.60
3504;DHT22;1766;53.490;10.174;2023-09-19T05:27:30;21.20;54.60
3504;DHT22;1766;53.490;10.174;2023-09-19T05:29:34;21.10;54.40
3504;DHT22;1766;53.490;10.174;2023-09-19T05:31:36;21.20;54.50
3504;DHT22;1766;53.490;10.174;2023-09-19T05:33:41;21.20;54.40
3504;DHT22;1766;53.490;10.174;2023-09-19T05:35:45;21.20;54.40
3504;DHT22;1766;53.490;10.174;2023-09-19T05:37:48;21.10;54.30
3504;DHT22;1766;53.490;10.174;2023-09-19T05:39:53;21.10;54.40
3504;DHT22;1766;53.490;10.174;2023-09-19T05:41:55;21.10;54.40
3504;DHT22;1766;53.490;10.174;2023-09-19T05:43:58;21.10;54.40
3504;DHT22;1766;53.490;10.174;2023-09-19T05:46:03;21.10;54.40
3504;DHT22;1766;53.490;10.174;2023-09-19T05:48:08;21.10;54.40
3504;DHT22;1766;53.490;10.174;2023-09-19T05:50:12;21.00;54.40
3504;DHT22;1766;53.490;10.174;2023-09-19T05:52:16;21.00;54.50
3504;DHT22;1766;53.490;10.174;2023-09-19T05:54:19;21.00;54.60
3504;DHT22;1766;53.490;10.174;2023-09-19T05:56:23;21.00;54.60
3504;DHT22;1766;53.490;10.174;2023-09-19T05:58:25;21.00;54.80
3504;DHT22;1766;53.490;10.174;2023-09-19T06:00:29;21.00;55.40
3504;DHT22;1766;53.490;10.174;2023-09-19T06:02:32;21.00;55.00
3504;DHT22;1766;53.490;10.174;2023-09-19T06:04:35;20.90;55.00
3504;DHT22;1766;53.490;10.174;2023-09-19T06:06:41;20.90;55.10
3504;DHT22;1766;53.490;10.174;2023-09-19T06:08:45;20.90;55.00
3504;DHT22;1766;53.490;10.174;2023-09-19T06:10:47;21.00;55.20
3504;DHT22;1766;53.490;10.174;2023-09-19T06:12:52;20.90;55.20
3504;DHT22;1766;53.490;10.174;2023-09-19T06:14:55;21.00;55.40
3504;DHT22;1766;53.490;10.174;2023-09-19T06:16:57;21.00;55.40
3504;DHT22;1766;53.490;10.174;2023-09-19T06:18:59;21.00;55.40
3504;DHT22;1766;53.490;10.174;2023-09-19T06:21:01;21.10;55.70
3504;DHT22;1766;53.490;10.174;2023-09-19T06:23:07;21.10;55.60
3504;DHT22;1766;53.490;10.174;2023-09-19T06:25:12;21.10;55.60
3504;DHT22;1766;53.490;10.174;2023-09-19T06:27:19;21.10;55.80
3504;DHT22;1766;53.490;10.174;2023-09-19T06:29:22;21.10;55.70
3504;DHT22;1766;53.490;10.174;2023-09-19T06:31:25;21.10;55.70
3504;DHT22;1766;53.490;10.174;2023-09-19T06:33:28;21.20;55.80
3504;DHT22;1766;53.490;10.174;2023-09-19T06:35:32;21.20;55.80
3504;DHT22;1766;53.490;10.174;2023-09-19T06:37:35;21.30;55.90
3504;DHT22;1766;53.490;10.174;2023-09-19T06:39:39;21.30;55.80
3504;DHT22;1766;53.490;10.174;2023-09-19T06:41:43;21.30;55.80
3504;DHT22;1766;53.490;10.174;2023-09-19T06:43:46;21.40;55.70
3504;DHT22;1766;53.490;10.174;2023-09-19T06:45:48;21.40;55.60
3504;DHT22;1766;53.490;10.174;2023-09-19T06:47:51;21.40;55.60
3504;DHT22;1766;53.490;10.174;2023-09-19T06:49:54;21.40;55.60
3504;DHT22;1766;53.490;10.174;2023-09-19T06:51:56;21.40;55.50
3504;DHT22;1766;53.490;10.174;2023-09-19T06:54:01;21.50;55.70
3504;DHT22;1766;53.490;10.174;2023-09-19T06:56:06;21.50;55.70
3504;DHT22;1766;53.490;10.174;2023-09-19T06:58:10;21.50;55.70
3504;DHT22;1766;53.490;10.174;2023-09-19T07:00:14;21.50;55.80
3504;DHT22;1766;53.490;10.174;2023-09-19T07:02:19;21.60;55.80
3504;DHT22;1766;53.490;10.174;2023-09-19T07:04:23;21.60;55.50
3504;DHT22;1766;53.490;10.174;2023-09-19T07:06:26;21.60;55.60
3504;DHT22;1766;53.490;10.174;2023-09-19T07:08:28;21.60;55.50
3504;DHT22;1766;53.490;10.174;2023-09-19T07:10:42;21.60;55.50
3504;DHT22;1766;53.490;10.174;2023-09-19T07:12:54;21.60;55.60
3504;DHT22;1766;53.490;10.174;2023-09-19T07:14:59;21.60;55.70
3504;DHT22;1766;53.490;10.174;2023-09-19T07:17:01;21.70;55.60
3504;DHT22;1766;53.490;10.174;2023-09-19T07:19:04;21.70;55.50
3504;DHT22;1766;53.490;10.174;2023-09-19T07:21:17;20.60;54.60
3504;DHT22;1766;53.490;10.174;2023-09-19T07:23:20;21.70;55.40
3504;DHT22;1766;53.490;10.174;2023-09-19T07:25:24;21.80;55.60
3504;DHT22;1766;53.490;10.174;2023-09-19T07:27:26;21.80;55.50
3504;DHT22;1766;53.490;10.174;2023-09-19T07:29:28;21.80;55.50
3504;DHT22;1766;53.490;10.174;2023-09-19T07:31:31;21.80;55.40
3504;DHT22;1766;53.490;10.174;2023-09-19T07:33:34;21.90;55.50
3504;DHT22;1766;53.490;10.174;2023-09-19T07:35:36;21.90;55.30
3504;DHT22;1766;53.490;10.174;2023-09-19T07:37:40;21.90;55.30
3504;DHT22;1766;53.490;10.174;2023-09-19T07:39:49;21.90;55.20
3504;DHT22;1766;53.490;10.174;2023-09-19T07:41:51;22.00;55.20
3504;DHT22;1766;53.490;10.174;2023-09-19T07:43:54;22.00;55.00
3504;DHT22;1766;53.490;10.174;2023-09-19T07:45:57;22.00;55.10
3504;DHT22;1766;53.490;10.174;2023-09-19T07:48:08;22.00;54.90
3504;DHT22;1766;53.490;10.174;2023-09-19T07:50:15;22.00;55.00
3504;DHT22;1766;53.490;10.174;2023-09-19T07:52:19;22.10;55.10
3504;DHT22;1766;53.490;10.174;2023-09-19T07:54:22;22.10;54.80
3504;DHT22;1766;53.490;10.174;2023-09-19T07:56:24;22.10;54.70
3504;DHT22;1766;53.490;10.174;2023-09-19T07:58:28;22.10;55.10
3504;DHT22;1766;53.490;10.174;2023-09-19T08:00:30;22.10;54.60
3504;DHT22;1766;53.490;10.174;2023-09-19T08:02:34;22.10;54.50
3504;DHT22;1766;53.490;10.174;2023-09-19T08:04:40;22.10;54.60
3504;DHT22;1766;53.490;10.174;2023-09-19T08:06:42;22.10;54.40
3504;DHT22;1766;53.490;10.174;2023-09-19T08:08:45;22.10;54.20
3504;DHT22;1766;53.490;10.174;2023-09-19T08:10:53;22.10;54.30
3504;DHT22;1766;53.490;10.174;2023-09-19T08:12:56;22.10;54.40
3504;DHT22;1766;53.490;10.174;2023-09-19T08:15:01;22.10;54.60
3504;DHT22;1766;53.490;10.174;2023-09-19T08:17:03;20.80;53.30
3504;DHT22;1766;53.490;10.174;2023-09-19T08:19:06;22.10;54.10
3504;DHT22;1766;53.490;10.174;2023-09-19T08:21:11;22.00;53.90
3504;DHT22;1766;53.490;10.174;2023-09-19T08:23:15;22.00;53.80
3504;DHT22;1766;53.490;10.174;2023-09-19T08:25:18;22.00;53.50
3504;DHT22;1766;53.490;10.174;2023-09-19T08:27:20;22.00;53.50
3504;DHT22;1766;53.490;10.174;2023-09-19T08:29:23;22.00;53.40
3504;DHT22;1766;53.490;10.174;2023-09-19T08:31:28;22.00;53.40
3504;DHT22;1766;53.490;10.174;2023-09-19T08:33:31;22.00;53.20
3504;DHT22;1766;53.490;10.174;2023-09-19T08:35:33;22.10;53.40
3504;DHT22;1766;53.490;10.174;2023-09-19T08:37:35;22.10;53.10
3504;DHT22;1766;53.490;10.174;2023-09-19T08:39:37;22.10;53.00
3504;DHT22;1766;53.490;10.174;2023-09-19T08:41:40;22.10;52.80
3504;DHT22;1766;53.490;10.174;2023-09-19T08:43:41;22.20;52.80
3504;DHT22;1766;53.490;10.174;2023-09-19T08:45:43;22.10;52.60
3504;DHT22;1766;53.490;10.174;2023-09-19T08:48:00;22.20;52.70
3504;DHT22;1766;53.490;10.174;2023-09-19T08:50:19;22.20;52.60
3504;DHT22;1766;53.490;10.174;2023-09-19T08:52:32;22.20;52.50
3504;DHT22;1766;53.490;10.174;2023-09-19T08:54:38;22.20;52.40
3504;DHT22;1766;53.490;10.174;2023-09-19T08:56:54;22.20;52.40
3504;DHT22;1766;53.490;10.174;2023-09-19T08:58:59;22.20;52.30
3504;DHT22;1766;53.490;10.174;2023-09-19T09:01:03;22.20;52.40
3504;DHT22;1766;53.490;10.174;2023-09-19T09:03:13;22.30;52.50
3504;DHT22;1766;53.490;10.174;2023-09-19T09:05:24;22.30;52.40
3504;DHT22;1766;53.490;10.174;2023-09-19T09:07:27;22.30;52.30
3504;DHT22;1766;53.490;10.174;2023-09-19T09:09:29;22.30;52.20
3504;DHT22;1766;53.490;10.174;2023-09-19T09:11:33;22.30;52.10
3504;DHT22;1766;53.490;10.174;2023-09-19T09:13:36;22.40;52.00
3504;DHT22;1766;53.490;10.174;2023-09-19T09:15:37;22.40;52.10
3504;DHT22;1766;53.490;10.174;2023-09-19T09:17:40;22.50;52.00
3504;DHT22;1766;53.490;10.174;2023-09-19T09:19:43;22.50;51.90
3504;DHT22;1766;53.490;10.174;2023-09-19T09:21:45;22.50;51.70
3504;DHT22;1766;53.490;10.174;2023-09-19T09:23:50;22.50;51.70
3504;DHT22;1766;53.490;10.174;2023-09-19T09:25:55;22.50;51.70
3504;DHT22;1766;53.490;10.174;2023-09-19T09:28:01;22.60;51.60
3504;DHT22;1766;53.490;10.174;2023-09-19T09:30:04;22.60;51.40
3504;DHT22;1766;53.490;10.174;2023-09-19T09:32:22;22.60;51.30
3504;DHT22;1766;53.490;10.174;2023-09-19T09:34:32;22.60;51.20
3504;DHT22;1766;53.490;10.174;2023-09-19T09:36:35;22.60;51.00
3504;DHT22;1766;53.490;10.174;2023-09-19T09:38:46;22.70;51.00
3504;DHT22;1766;53.490;10.174;2023-09-19T09:40:50;22.80;50.90
3504;DHT22;1766;53.490;10.174;2023-09-19T09:42:55;22.80;50.80
3504;DHT22;1766;53.490;10.174;2023-09-19T09:45:16;22.90;50.70
3504;DHT22;1766;53.490;10.174;2023-09-19T09:47:41;23.00;50.50
3504;DHT22;1766;53.490;10.174;2023-09-19T09:49:51;23.10;50.20
3504;DHT22;1766;53.490;10.174;2023-09-19T09:52:00;23.20;50.30
3504;DHT22;1766;53.490;10.174;2023-09-19T09:54:14;23.30;50.10
3504;DHT22;1766;53.490;10.174;2023-09-19T09:56:16;23.40;49.90
3504;DHT22;1766;53.490;10.174;2023-09-19T09:58:19;23.50;49.70
3504;DHT22;1766;53.490;10.174;2023-09-19T10:00:27;23.50;49.20
3504;DHT22;1766;53.490;10.174;2023-09-19T10:02:54;23.60;49.00
3504;DHT22;1766;53.490;10.174;2023-09-19T10:04:56;23.70;48.80
3504;DHT22;1766;53.490;10.174;2023-09-19T10:07:27;23.80;48.50
3504;DHT22;1766;53.490;10.174;2023-09-19T10:09:45;23.80;48.10
3504;DHT22;1766;53.490;10.174;2023-09-19T10:11:48;23.90;47.60
3504;DHT22;1766;53.490;10.174;2023-09-19T10:14:06;23.90;47.30
3504;DHT22;1766;53.490;10.174;2023-09-19T10:16:12;24.00;47.20
3504;DHT22;1766;53.490;10.174;2023-09-19T10:18:16;24.00;47.00
3504;DHT22;1766;53.490;10.174;2023-09-19T10:20:22;24.00;46.70
3504;DHT22;1766;53.490;10.174;2023-09-19T10:22:34;24.00;46.50
3504;DHT22;1766;53.490;10.174;2023-09-19T10:24:43;24.10;46.30
3504;DHT22;1766;53.490;10.174;2023-09-19T10:26:48;24.10;46.00
3504;DHT22;1766;53.490;10.174;2023-09-19T10:28:52;24.10;45.70
3504;DHT22;1766;53.490;10.174;2023-09-19T10:31:00;24.10;45.50
3504;DHT22;1766;53.490;10.174;2023-09-19T10:33:05;24.10;45.20
3504;DHT22;1766;53.490;10.174;2023-09-19T10:35:08;24.10;45.10
3504;DHT22;1766;53.490;10.174;2023-09-19T10:37:13;24.10;44.90
3504;DHT22;1766;53.490;10.174;2023-09-19T10:39:20;24.00;44.70
3504;DHT22;1766;53.490;10.174;2023-09-19T10:41:29;24.00;44.80
3504;DHT22;1766;53.490;10.174;2023-09-19T10:43:32;24.00;44.60
3504;DHT22;1766;53.490;10.174;2023-09-19T10:45:39;24.00;44.60
3504;DHT22;1766;53.490;10.174;2023-09-19T10:47:41;24.00;44.70
3504;DHT22;1766;53.490;10.174;2023-09-19T10:49:46;24.00;44.50
3504;DHT22;1766;53.490;10.174;2023-09-19T10:51:52;24.10;44.50
3504;DHT22;1766;53.490;10.174;2023-09-19T10:53:59;24.10;44.40
3504;DHT22;1766;53.490;10.174;2023-09-19T10:56:08;24.10;44.20
3504;DHT22;1766;53.490;10.174;2023-09-19T10:58:26;24.10;44.00
3504;DHT22;1766;53.490;10.174;2023-09-19T11:00:30;24.10;44.00
3504;DHT22;1766;53.490;10.174;2023-09-19T11:02:35;24.00;43.80
3504;DHT22;1766;53.490;10.174;2023-09-19T11:04:38;24.00;44.00
3504;DHT22;1766;53.490;10.174;2023-09-19T11:06:42;24.00;44.00
3504;DHT22;1766;53.490;10.174;2023-09-19T11:08:59;24.00;44.00
3504;DHT22;1766;53.490;10.174;2023-09-19T11:11:43;24.00;44.10
3504;DHT22;1766;53.490;10.174;2023-09-19T11:14:16;24.10;44.00
3504;DHT22;1766;53.490;10.174;2023-09-19T11:16:32;24.10;44.00
3504;DHT22;1766;53.490;10.174;2023-09-19T11:18:52;24.00;43.80
3504;DHT22;1766;53.490;10.174;2023-09-19T11:26:40;24.00;43.90
3504;DHT22;1766;53.490;10.174;2023-09-19T11:29:26;24.00;43.60
3504;DHT22;1766;53.490;10.174;2023-09-19T11:31:43;24.00;43.50
3504;DHT22;1766;53.490;10.174;2023-09-19T11:33:44;24.00;43.30
3504;DHT22;1766;53.490;10.174;2023-09-19T11:35:59;24.00;43.10
3504;DHT22;1766;53.490;10.174;2023-09-19T11:38:01;24.00;43.20
3504;DHT22;1766;53.490;10.174;2023-09-19T11:40:12;24.00;43.10
3504;DHT22;1766;53.490;10.174;2023-09-19T11:44:50;24.00;43.00
3504;DHT22;1766;53.490;10.174;2023-09-19T11:46:53;24.10;42.90
3504;DHT22;1766;53.490;10.174;2023-09-19T11:49:05;24.10;42.90
3504;DHT22;1766;53.490;10.174;2023-09-19T11:51:15;24.10;42.90
3504;DHT22;1766;53.490;10.174;2023-09-19T11:53:23;24.10;42.70
3504;DHT22;1766;53.490;10.174;2023-09-19T11:55:29;24.10;42.60
3504;DHT22;1766;53.490;10.174;2023-09-19T11:57:33;24.10;42.50
3504;DHT22;1766;53.490;10.174;2023-09-19T11:59:40;24.10;42.60
3504;DHT22;1766;53.490;10.174;2023-09-19T12:01:50;24.10;42.70
3504;DHT22;1766;53.490;10.174;2023-09-19T12:03:59;24.10;42.90
3504;DHT22;1766;53.490;10.174;2023-09-19T12:06:10;24.10;43.00
3504;DHT22;1766;53.490;10.174;2023-09-19T12:08:15;24.10;43.00
3504;DHT22;1766;53.490;10.174;2023-09-19T12:10:17;24.10;43.10
3504;DHT22;1766;53.490;10.174;2023-09-19T12:12:25;24.10;43.20
3504;DHT22;1766;53.490;10.174;2023-09-19T12:14:32;24.10;43.30
3504;DHT22;1766;53.490;10.174;2023-09-19T12:16:40;24.10;43.30
3504;DHT22;1766;53.490;10.174;2023-09-19T12:18:44;24.10;43.30
3504;DHT22;1766;53.490;10.174;2023-09-19T12:20:45;24.10;43.40
3504;DHT22;1766;53.490;10.174;2023-09-19T12:22:53;24.10;43.40
3504;DHT22;1766;53.490;10.174;2023-09-19T12:25:06;24.10;43.70
3504;DHT22;1766;53.490;10.174;2023-09-19T12:27:15;24.20;43.80
3504;DHT22;1766;53.490;10.174;2023-09-19T12:29:20;24.20;43.80
3504;DHT22;1766;53.490;10.174;2023-09-19T12:31:21;24.20;43.70
3504;DHT22;1766;53.490;10.174;2023-09-19T12:33:27;24.20;43.60
3504;DHT22;1766;53.490;10.174;2023-09-19T12:35:29;24.30;43.50
3504;DHT22;1766;53.490;10.174;2023-09-19T12:37:43;24.30;43.50
3504;DHT22;1766;53.490;10.174;2023-09-19T12:39:50;24.40;43.50
3504;DHT22;1766;53.490;10.174;2023-09-19T12:41:56;24.40;43.30
3504;DHT22;1766;53.490;10.174;2023-09-19T12:43:58;24.40;43.20
3504;DHT22;1766;53.490;10.174;2023-09-19T12:46:03;24.40;43.20
3504;DHT22;1766;53.490;10.174;2023-09-19T12:48:23;24.50;43.10
3504;DHT22;1766;53.490;10.174;2023-09-19T12:53:26;24.70;42.90
3504;DHT22;1766;53.490;10.174;2023-09-19T12:55:30;24.70;42.90
3504;DHT22;1766;53.490;10.174;2023-09-19T12:57:38;24.70;42.70
3504;DHT22;1766;53.490;10.174;2023-09-19T12:59:55;24.70;42.70
3504;DHT22;1766;53.490;10.174;2023-09-19T13:02:05;24.70;42.60
3504;DHT22;1766;53.490;10.174;2023-09-19T13:04:17;24.70;42.60
3504;DHT22;1766;53.490;10.174;2023-09-19T13:06:35;24.80;42.70
3504;DHT22;1766;53.490;10.174;2023-09-19T13:08:41;24.80;42.60
3504;DHT22;1766;53.490;10.174;2023-09-19T13:11:02;24.90;42.30
3504;DHT22;1766;53.490;10.174;2023-09-19T13:13:24;25.00;42.30
3504;DHT22;1766;53.490;10.174;2023-09-19T13:15:51;25.00;42.10
3504;DHT22;1766;53.490;10.174;2023-09-19T13:17:56;25.00;41.90
3504;DHT22;1766;53.490;10.174;2023-09-19T13:20:03;25.00;41.60
3504;DHT22;1766;53.490;10.174;2023-09-19T13:24:46;25.00;41.50
3504;DHT22;1766;53.490;10.174;2023-09-19T13:26:59;25.00;41.50
3504;DHT22;1766;53.490;10.174;2023-09-19T13:29:09;25.10;41.50
3504;DHT22;1766;53.490;10.174;2023-09-19T13:31:22;25.20;41.20
3504;DHT22;1766;53.490;10.174;2023-09-19T13:33:28;25.30;40.90
3504;DHT22;1766;53.490;10.174;2023-09-19T13:35:31;25.30;40.80
3504;DHT22;1766;53.490;10.174;2023-09-19T13:37:38;25.40;40.60
3504;DHT22;1766;53.490;10.174;2023-09-19T13:39:42;25.40;40.50
3504;DHT22;1766;53.490;10.174;2023-09-19T13:41:48;25.40;40.30
3504;DHT22;1766;53.490;10.174;2023-09-19T13:43:51;25.40;40.30
3504;DHT22;1766;53.490;10.174;2023-09-19T13:45:53;25.50;40.30